KAFW/AFW METAR and TAF weather

Enter ICAO airport designator
Station Type Date Time Source
KAFW METAR 2018/01/19 17:12 UTC NOAA

KAFW 191712Z 18016G23KT 10SM SCT019 11/03 A3018 RMK AO2 T01060028


Station Type Date Time Source
KAFW Decoded METAR 2018/01/19 17:12 UTC NOAA

FORT WORTH ALLIANCE AIRPORT, TX, United States (KAFW) 32-59N 097-19W 233M
Jan 19, 2018 - 12:12 PM EST / 2018.01.19 1712 UTC
Wind: from the S (180 degrees) at 18 MPH (16 KT) gusting to 26 MPH (23 KT):0
Visibility: 10 mile(s):0
Sky conditions: partly cloudy
Temperature: 51.1 F (10.6 C)
Dew Point: 37.0 F (2.8 C)
Relative Humidity: 58%
Pressure (altimeter): 30.18 in. Hg (1022 hPa)
ob: KAFW 191712Z 18016G23KT 10SM SCT019 11/03 A3018 RMK AO2 T01060028
cycle: 17

Station Type Date Time Source
KAFW TAF 2018/01/19 18:27 UTC NOAA

TAF KAFW 191725Z 1918/2018 18017KT P6SM SCT018
FM200300 17013KT P6SM BKN025
FM200800 17013KT 3SM -DZ BR BKN011
FM201600 18013KT P6SM BKN025


Example: see airport list